createdAt,value
2023-02-21T00:01:16.722Z,10.55
2023-02-21T00:04:19.570Z,10.00
2023-02-21T00:07:22.765Z,10.25
2023-02-21T00:10:25.998Z,9.50
2023-02-21T00:13:28.795Z,10.20
2023-02-21T00:16:32.322Z,9.50
2023-02-21T00:19:35.800Z,9.80
2023-02-21T00:22:38.657Z,10.00
2023-02-21T00:25:41.340Z,10.15
2023-02-21T00:28:44.519Z,9.60
2023-02-21T00:31:47.673Z,10.00
2023-02-21T00:34:52.785Z,10.70
2023-02-21T00:37:55.443Z,9.93
2023-02-21T00:40:58.976Z,9.32
2023-02-21T00:44:01.432Z,9.65
2023-02-21T00:47:04.043Z,9.85
2023-02-21T00:50:06.421Z,9.90
2023-02-21T00:53:09.777Z,9.27
2023-02-21T00:56:12.729Z,9.95
2023-02-21T00:59:15.306Z,9.27
2023-02-21T01:02:18.266Z,10.65
2023-02-21T01:05:21.754Z,9.23
2023-02-21T01:08:24.779Z,9.43
2023-02-21T01:11:27.409Z,9.20
2023-02-21T01:14:31.770Z,10.05
2023-02-21T01:17:35.389Z,10.30
2023-02-21T01:20:39.797Z,10.10
2023-02-21T01:23:41.990Z,10.02
2023-02-21T01:26:45.844Z,9.70
2023-02-21T01:29:48.753Z,10.45
2023-02-21T01:32:51.424Z,10.15
2023-02-21T01:35:55.666Z,10.32
2023-02-21T01:38:59.037Z,9.93
2023-02-21T01:42:02.241Z,9.80
2023-02-21T01:45:05.432Z,10.05
2023-02-21T01:48:08.872Z,9.27
2023-02-21T01:51:13.102Z,10.02
2023-02-21T01:54:16.148Z,10.30
2023-02-21T01:57:19.843Z,9.73
2023-02-21T02:00:23.104Z,10.10
2023-02-21T02:03:28.558Z,9.85
2023-02-21T02:06:31.175Z,10.02
2023-02-21T02:09:36.992Z,9.25
2023-02-21T02:12:39.536Z,9.68
2023-02-21T02:15:42.054Z,9.15
2023-02-21T02:18:44.660Z,9.55
2023-02-21T02:21:47.369Z,9.45
2023-02-21T02:24:50.440Z,10.00
2023-02-21T02:27:53.658Z,9.45
2023-02-21T02:30:56.727Z,9.52
2023-02-21T02:33:59.604Z,9.10
2023-02-21T02:37:01.834Z,9.15
2023-02-21T02:40:04.820Z,9.57
2023-02-21T02:43:08.218Z,9.77
2023-02-21T02:46:11.388Z,9.45
2023-02-21T02:49:14.068Z,10.00
2023-02-21T02:52:17.232Z,9.40
2023-02-21T02:55:20.694Z,9.27
2023-02-21T02:58:23.829Z,9.55
2023-02-21T03:01:26.260Z,9.80
2023-02-21T03:04:28.713Z,10.68
2023-02-21T03:07:31.611Z,9.57
2023-02-21T03:10:34.646Z,9.20
2023-02-21T03:13:37.386Z,9.45
2023-02-21T03:16:39.646Z,10.13
2023-02-21T03:19:43.770Z,9.18
2023-02-21T03:22:47.185Z,9.43
2023-02-21T03:25:50.389Z,9.55
2023-02-21T03:28:53.547Z,10.00
2023-02-21T03:31:56.851Z,9.77
2023-02-21T03:34:59.575Z,9.90
2023-02-21T03:38:03.428Z,9.55
2023-02-21T03:41:06.674Z,10.15
2023-02-21T03:44:12.180Z,9.98
2023-02-21T03:47:14.852Z,9.55
2023-02-21T03:50:17.168Z,10.23
2023-02-21T03:53:20.056Z,9.98
2023-02-21T03:56:28.100Z,9.55
2023-02-21T03:59:48.961Z,9.70
2023-02-21T04:02:52.608Z,9.48
2023-02-21T04:06:03.978Z,9.68
2023-02-21T04:09:08.438Z,9.80
2023-02-21T04:12:12.272Z,9.43
2023-02-21T04:15:15.901Z,9.68
2023-02-21T04:18:18.609Z,10.13
2023-02-21T04:21:23.062Z,9.57
2023-02-21T04:24:28.862Z,9.63
2023-02-21T04:27:31.270Z,9.43
2023-02-21T04:30:33.983Z,9.73
2023-02-21T04:33:36.821Z,10.35
2023-02-21T04:36:40.285Z,9.57
2023-02-21T04:39:43.856Z,9.60
2023-02-21T04:42:46.129Z,9.40
2023-02-21T04:45:49.032Z,9.05
2023-02-21T04:48:51.607Z,8.07
2023-02-21T04:51:54.281Z,9.07
2023-02-21T04:54:57.411Z,8.93
2023-02-21T04:58:00.456Z,8.88
2023-02-21T05:01:03.187Z,8.70
2023-02-21T05:04:06.210Z,8.60
2023-02-21T05:07:09.403Z,9.23
2023-02-21T05:10:12.237Z,8.77
2023-02-21T05:13:15.089Z,9.05
2023-02-21T05:16:18.125Z,8.57
2023-02-21T05:19:21.452Z,8.55
2023-02-21T05:22:24.409Z,9.20
2023-02-21T05:25:27.865Z,8.90
2023-02-21T05:28:30.733Z,9.07
2023-02-21T05:31:33.562Z,9.45
2023-02-21T05:34:36.056Z,8.88
2023-02-21T05:37:38.835Z,9.27
2023-02-21T05:40:42.420Z,8.95
2023-02-21T05:43:45.416Z,8.38
2023-02-21T05:46:48.118Z,9.73
2023-02-21T05:49:50.352Z,8.90
2023-02-21T05:52:53.382Z,9.10
2023-02-21T05:55:56.269Z,9.50
2023-02-21T05:58:58.558Z,8.25
2023-02-21T06:02:01.368Z,8.88
2023-02-21T06:05:04.115Z,9.43
2023-02-21T06:08:09.039Z,9.32
2023-02-21T06:11:13.346Z,8.40
2023-02-21T06:14:16.468Z,9.35
2023-02-21T06:17:19.613Z,9.50
2023-02-21T06:20:23.105Z,9.60
2023-02-21T06:23:26.919Z,9.40
2023-02-21T06:26:29.982Z,9.52
2023-02-21T06:29:33.782Z,9.32
2023-02-21T06:32:36.734Z,9.95
2023-02-21T06:35:39.693Z,10.18
2023-02-21T06:38:43.021Z,9.90
2023-02-21T06:41:46.534Z,10.48
2023-02-21T06:44:49.245Z,9.23
2023-02-21T06:47:52.219Z,10.20
2023-02-21T06:50:54.982Z,8.90
2023-02-21T06:53:58.911Z,9.95
2023-02-21T06:57:02.406Z,10.18
2023-02-21T07:00:05.605Z,10.40
2023-02-21T07:03:08.621Z,9.65
2023-02-21T07:06:12.030Z,9.98
2023-02-21T07:09:15.199Z,10.07
2023-02-21T07:12:18.741Z,10.07
2023-02-21T07:15:21.415Z,10.55
2023-02-21T07:18:23.770Z,10.10
2023-02-21T07:21:26.411Z,9.70
2023-02-21T07:24:29.209Z,10.18
2023-02-21T07:27:31.433Z,10.13
2023-02-21T07:30:34.415Z,10.23
2023-02-21T07:33:37.394Z,10.15
2023-02-21T07:36:40.782Z,9.93
2023-02-21T07:39:44.751Z,10.23
2023-02-21T07:42:47.919Z,10.00
2023-02-21T07:45:51.092Z,10.60
2023-02-21T07:48:54.242Z,10.30
2023-02-21T07:51:57.841Z,10.13
2023-02-21T07:55:01.401Z,9.93
2023-02-21T07:58:04.066Z,10.60
2023-02-21T08:01:06.848Z,10.93
2023-02-21T08:04:09.959Z,11.20
2023-02-21T08:07:12.478Z,10.70
2023-02-21T08:10:17.544Z,10.77
2023-02-21T08:13:19.592Z,10.95
2023-02-21T09:40:29.732Z,11.48
2023-02-21T09:43:32.086Z,12.10
2023-02-21T09:46:34.700Z,11.57
2023-02-21T09:49:37.750Z,11.23
2023-02-21T09:52:40.413Z,11.20
2023-02-21T09:55:43.244Z,11.15
2023-02-21T09:58:47.165Z,12.10
2023-02-21T10:01:50.643Z,12.32
2023-02-21T10:04:53.400Z,11.32
2023-02-21T10:07:55.589Z,12.32
2023-02-21T10:10:58.826Z,11.60
2023-02-21T10:14:01.640Z,11.25
2023-02-21T10:17:04.377Z,11.57
2023-02-21T10:20:07.161Z,11.27
2023-02-21T10:23:09.693Z,11.52
2023-02-21T10:26:12.406Z,11.13
2023-02-21T10:29:17.842Z,11.48
2023-02-21T10:32:21.263Z,11.70
2023-02-21T10:35:24.754Z,11.05
2023-02-21T10:38:28.007Z,11.65
2023-02-21T10:41:32.026Z,10.88
2023-02-21T10:44:35.958Z,10.48
2023-02-21T10:47:39.476Z,11.50
2023-02-21T10:50:42.396Z,11.63
2023-02-21T10:53:45.883Z,11.68
2023-02-21T10:56:49.249Z,10.70
2023-02-21T10:59:52.137Z,12.25
2023-02-21T11:02:54.879Z,11.30
2023-02-21T11:05:57.928Z,11.75
2023-02-21T11:09:01.336Z,12.32
2023-02-21T11:12:04.766Z,11.40
2023-02-21T11:15:07.807Z,11.23
2023-02-21T11:18:10.033Z,11.20
2023-02-21T11:21:13.321Z,11.30
2023-02-21T11:24:16.760Z,11.93
2023-02-21T11:27:19.234Z,10.93
2023-02-21T11:30:21.534Z,11.70
2023-02-21T11:33:24.587Z,11.25
2023-02-21T11:36:27.317Z,11.35
2023-02-21T11:39:30.530Z,11.43
2023-02-21T11:42:33.536Z,12.50
2023-02-21T11:45:36.308Z,10.55
2023-02-21T11:48:39.172Z,11.73
2023-02-21T11:51:41.944Z,11.40
2023-02-21T11:54:44.548Z,12.00
2023-02-21T11:57:46.819Z,11.63
2023-02-21T12:00:49.932Z,11.50
2023-02-21T12:03:52.477Z,11.20
2023-02-21T12:06:55.465Z,11.63
2023-02-21T12:09:58.187Z,11.68
2023-02-21T12:13:00.782Z,11.13
2023-02-21T12:16:03.515Z,10.63
2023-02-21T12:19:05.813Z,10.73
2023-02-21T12:22:09.007Z,10.88
2023-02-21T12:25:12.874Z,11.15
2023-02-21T12:28:15.857Z,11.27
2023-02-21T12:31:19.106Z,11.13
2023-02-21T12:34:22.445Z,11.18
2023-02-21T12:37:25.211Z,11.02
2023-02-21T12:40:28.094Z,11.75
2023-02-21T12:43:30.820Z,11.60
2023-02-21T12:46:33.625Z,10.88
2023-02-21T12:49:36.921Z,11.20
2023-02-21T12:52:39.171Z,11.25
2023-02-21T12:55:41.893Z,10.95
2023-02-21T12:58:44.700Z,10.80
2023-02-21T13:01:47.290Z,11.43
2023-02-21T13:04:49.581Z,11.07
2023-02-21T13:07:52.245Z,11.25
2023-02-21T13:10:55.169Z,10.93
2023-02-21T13:13:57.688Z,10.35
2023-02-21T13:17:00.962Z,9.77
2023-02-21T13:20:03.783Z,10.82
2023-02-21T13:23:06.707Z,11.07
2023-02-21T13:26:09.653Z,10.40
2023-02-21T13:29:13.196Z,10.63
2023-02-21T13:32:16.001Z,9.90
2023-02-21T13:35:18.814Z,9.57
2023-02-21T13:38:21.538Z,9.63
2023-02-21T13:41:24.692Z,10.02
2023-02-21T13:44:28.089Z,9.95
2023-02-21T13:47:31.012Z,9.32
2023-02-21T13:50:35.681Z,9.55
2023-02-21T13:53:40.400Z,9.90
2023-02-21T13:56:43.485Z,9.18
2023-02-21T13:59:46.728Z,9.70
2023-02-21T14:02:49.486Z,8.90
2023-02-21T14:05:52.399Z,8.98
2023-02-21T14:08:55.287Z,8.35
2023-02-21T14:11:58.040Z,9.27
2023-02-21T14:15:01.120Z,8.95
2023-02-21T14:18:04.321Z,8.68
2023-02-21T14:21:09.782Z,8.55
2023-02-21T14:24:13.351Z,9.00
2023-02-21T14:27:16.063Z,9.05
2023-02-21T14:30:18.710Z,9.18
2023-02-21T14:33:22.748Z,8.50
2023-02-21T14:36:26.328Z,8.00
2023-02-21T14:39:28.622Z,8.63
2023-02-21T14:42:31.226Z,8.48
2023-02-21T14:45:34.296Z,8.75
2023-02-21T14:48:38.036Z,7.97
2023-02-21T14:51:41.209Z,8.40
2023-02-21T14:54:44.591Z,8.55
2023-02-21T14:57:47.187Z,8.32
2023-02-21T15:00:50.455Z,8.50
2023-02-21T15:03:53.994Z,8.02
2023-02-21T15:06:56.595Z,8.40
2023-02-21T15:09:59.449Z,7.75
2023-02-21T15:13:01.919Z,7.35
2023-02-21T15:16:04.844Z,8.25
2023-02-21T15:19:08.655Z,7.82
2023-02-21T15:22:11.617Z,8.20
2023-02-21T15:25:15.212Z,7.35
2023-02-21T15:28:18.357Z,7.90
2023-02-21T15:31:21.983Z,7.85
2023-02-21T15:34:24.955Z,7.82
2023-02-21T15:37:28.038Z,7.07
2023-02-21T15:40:31.514Z,7.63
2023-02-21T15:43:35.272Z,8.02
2023-02-21T15:46:38.613Z,7.72
2023-02-21T15:53:05.825Z,6.90
2023-02-21T15:56:08.516Z,6.88
2023-02-21T15:59:10.555Z,6.28
2023-02-21T16:02:12.948Z,7.30
2023-02-21T16:05:15.712Z,6.70
2023-02-21T16:08:18.557Z,6.78
2023-02-21T16:11:21.589Z,6.65
2023-02-21T16:14:24.505Z,7.03
2023-02-21T16:17:27.526Z,7.35
2023-02-21T16:20:30.524Z,7.05
2023-02-21T16:23:33.204Z,6.65
2023-02-21T16:26:36.971Z,6.57
2023-02-21T16:29:40.230Z,6.90
2023-02-21T16:32:43.011Z,6.65
2023-02-21T16:35:46.170Z,6.43
2023-02-21T16:38:49.628Z,6.55
2023-02-21T16:41:53.419Z,6.68
2023-02-21T16:44:55.986Z,5.90
2023-02-21T16:47:59.213Z,6.28
2023-02-21T16:51:02.763Z,6.38
2023-02-21T16:54:06.386Z,6.13
2023-02-21T16:57:09.880Z,6.15
2023-02-21T17:00:13.112Z,6.07
2023-02-21T17:03:16.501Z,6.13
2023-02-21T17:06:19.011Z,5.25
2023-02-21T17:09:21.728Z,5.80
2023-02-21T17:12:24.746Z,5.50
2023-02-21T17:15:27.645Z,5.53
2023-02-21T17:18:31.094Z,5.43
2023-02-21T17:21:33.745Z,5.85
2023-02-21T17:24:36.878Z,5.30
2023-02-21T17:27:40.342Z,5.20
2023-02-21T17:30:43.129Z,5.22
2023-02-21T17:33:46.006Z,5.85
2023-02-21T17:36:49.413Z,5.32
2023-02-21T17:39:52.789Z,5.25
2023-02-21T17:42:56.186Z,5.22
2023-02-21T17:45:59.481Z,5.72
2023-02-21T17:49:02.459Z,4.72
2023-02-21T17:52:06.199Z,5.32
2023-02-21T17:55:10.184Z,5.30
2023-02-21T17:58:13.335Z,4.88
2023-02-21T18:01:17.094Z,5.05
2023-02-21T18:04:19.993Z,5.00
2023-02-21T18:07:22.397Z,5.05
2023-02-21T18:10:25.947Z,5.07
2023-02-21T18:13:28.872Z,5.00
2023-02-21T18:16:32.328Z,5.45
2023-02-21T18:19:35.091Z,4.60
2023-02-21T18:22:37.404Z,5.20
2023-02-21T18:25:39.614Z,4.57
2023-02-21T18:28:41.846Z,5.10
2023-02-21T18:31:45.005Z,4.93
2023-02-21T18:34:48.269Z,4.80
2023-02-21T18:37:51.832Z,4.63
2023-02-21T18:40:55.341Z,5.10
2023-02-21T18:43:58.544Z,4.45
2023-02-21T18:47:01.485Z,4.70
2023-02-21T18:50:03.899Z,4.82
2023-02-21T18:53:06.607Z,4.68
2023-02-21T18:56:08.845Z,4.75
2023-02-21T18:59:11.923Z,4.78
2023-02-21T19:02:14.881Z,4.93
2023-02-21T19:05:18.102Z,4.45
2023-02-21T19:08:21.999Z,4.38
2023-02-21T19:11:24.663Z,4.60
2023-02-21T19:14:28.573Z,3.72
2023-02-21T19:17:32.041Z,4.07
2023-02-21T19:20:34.312Z,4.00
2023-02-21T19:23:36.619Z,3.83
2023-02-21T19:26:39.875Z,4.18
2023-02-21T19:29:43.583Z,4.32
2023-02-21T19:32:46.498Z,3.75
2023-02-21T19:35:49.820Z,4.32
2023-02-21T19:38:53.309Z,4.40
2023-02-21T19:41:55.879Z,4.25
2023-02-21T19:44:59.018Z,4.13
2023-02-21T19:48:02.346Z,4.80
2023-02-21T19:51:06.043Z,4.30
2023-02-21T19:54:09.726Z,4.40
2023-02-21T19:57:13.209Z,4.45
2023-02-21T20:00:16.795Z,4.25
2023-02-21T20:03:19.701Z,4.30
2023-02-21T20:06:22.083Z,4.22
2023-02-21T20:09:24.820Z,4.38
2023-02-21T20:12:27.410Z,4.47
2023-02-21T20:15:30.562Z,4.57
2023-02-21T20:18:34.008Z,4.53
2023-02-21T20:21:37.009Z,4.30
2023-02-21T20:24:40.379Z,4.32
2023-02-21T20:27:43.092Z,4.60
2023-02-21T20:30:46.021Z,4.45
2023-02-21T20:33:49.039Z,4.22
2023-02-21T20:36:52.182Z,4.22
2023-02-21T20:39:55.731Z,4.63
2023-02-21T20:42:58.723Z,4.28
2023-02-21T20:46:02.664Z,4.07
2023-02-21T20:49:05.647Z,4.22
2023-02-21T20:52:08.485Z,4.65
2023-02-21T20:55:11.296Z,4.70
2023-02-21T20:58:14.167Z,5.28
2023-02-21T21:01:17.105Z,4.20
2023-02-21T21:04:20.166Z,5.03
2023-02-21T21:07:23.061Z,4.88
2023-02-21T21:10:26.854Z,4.47
2023-02-21T21:13:29.867Z,4.93
2023-02-21T21:16:32.641Z,4.70
2023-02-21T21:19:35.232Z,5.20
2023-02-21T21:22:38.176Z,5.13
2023-02-21T21:25:41.176Z,4.93
2023-02-21T21:28:44.172Z,5.00
2023-02-21T21:31:46.915Z,5.22
2023-02-21T21:34:50.157Z,4.80
2023-02-21T21:37:53.272Z,5.50
2023-02-21T21:40:56.105Z,5.10
2023-02-21T21:43:59.217Z,5.25
2023-02-21T21:47:02.656Z,5.47
2023-02-21T21:50:06.087Z,5.07
2023-02-21T21:53:08.888Z,5.28
2023-02-21T21:56:11.563Z,5.00
2023-02-21T21:59:14.639Z,5.43
2023-02-21T22:02:17.243Z,5.47
2023-02-21T22:05:20.844Z,5.03
2023-02-21T22:08:23.572Z,4.90
2023-02-21T22:11:26.096Z,5.40
2023-02-21T22:14:28.936Z,4.90
2023-02-21T22:17:31.641Z,5.07
2023-02-21T22:20:34.849Z,5.05
2023-02-21T22:23:38.791Z,5.18
2023-02-21T22:26:42.339Z,5.35
2023-02-21T22:29:45.433Z,5.88
2023-02-21T22:32:48.366Z,5.55
2023-02-21T22:35:51.064Z,5.85
2023-02-21T22:38:53.352Z,5.65
2023-02-21T22:41:56.636Z,5.50
2023-02-21T22:44:59.493Z,5.65
2023-02-21T22:48:02.597Z,5.18
2023-02-21T22:51:05.697Z,5.65
2023-02-21T22:54:08.884Z,6.05
2023-02-21T22:57:11.990Z,5.53
2023-02-21T23:00:14.314Z,5.45
2023-02-21T23:03:16.583Z,5.32
2023-02-21T23:06:19.629Z,4.95
2023-02-21T23:09:22.548Z,5.30
2023-02-21T23:12:25.380Z,4.95
2023-02-21T23:15:28.453Z,4.93
2023-02-21T23:18:31.368Z,4.93
2023-02-21T23:21:34.556Z,4.65
2023-02-21T23:24:38.115Z,5.15
2023-02-21T23:27:40.890Z,4.90
2023-02-21T23:30:43.544Z,4.65
2023-02-21T23:33:47.197Z,4.70
2023-02-21T23:36:49.725Z,4.82
2023-02-21T23:39:52.763Z,5.00
2023-02-21T23:42:56.131Z,4.90
2023-02-21T23:45:59.181Z,4.68
2023-02-21T23:49:02.318Z,5.32
2023-02-21T23:52:04.831Z,4.93
2023-02-21T23:55:07.608Z,4.90
2023-02-21T23:58:10.651Z,5.30
